createdAt,value
2019-03-19T00:00:07.089Z,5.63
2019-03-19T00:01:07.061Z,5.56
2019-03-19T00:02:07.065Z,5.60
2019-03-19T00:03:07.020Z,5.54
2019-03-19T00:04:06.993Z,5.54
2019-03-19T00:05:06.977Z,5.57
2019-03-19T00:06:06.948Z,5.49
2019-03-19T00:07:06.927Z,5.60
2019-03-19T00:08:06.907Z,5.64
2019-03-19T00:09:06.883Z,5.60
2019-03-19T00:10:06.856Z,5.61
2019-03-19T00:11:06.837Z,5.57
2019-03-19T00:12:06.813Z,5.61
2019-03-19T00:13:06.793Z,5.58
2019-03-19T00:14:06.766Z,5.63
2019-03-19T00:15:06.746Z,5.57
2019-03-19T00:16:06.717Z,5.64
2019-03-19T00:17:06.696Z,5.58
2019-03-19T00:18:06.679Z,5.53
2019-03-19T00:19:06.649Z,5.58
2019-03-19T00:20:06.627Z,5.53
2019-03-19T00:21:06.603Z,5.60
2019-03-19T00:22:06.584Z,5.49
2019-03-19T00:23:06.564Z,5.64
2019-03-19T00:24:06.538Z,5.63
2019-03-19T00:25:06.514Z,5.68
2019-03-19T00:26:06.490Z,5.63
2019-03-19T00:27:06.468Z,5.56
2019-03-19T00:28:06.441Z,5.58
2019-03-19T00:29:06.421Z,5.61
2019-03-19T00:30:06.396Z,5.54
2019-03-19T00:31:06.374Z,5.56
2019-03-19T00:32:06.348Z,5.54
2019-03-19T00:33:06.330Z,5.56
2019-03-19T00:34:06.305Z,5.53
2019-03-19T00:35:06.291Z,5.57
2019-03-19T00:36:06.258Z,5.58
2019-03-19T00:37:06.245Z,5.56
2019-03-19T00:38:06.214Z,5.58
2019-03-19T00:39:06.195Z,5.53
2019-03-19T00:40:06.169Z,5.53
2019-03-19T00:41:06.145Z,5.61
2019-03-19T00:42:06.122Z,5.51
2019-03-19T00:43:06.098Z,5.56
2019-03-19T00:44:06.072Z,5.63
2019-03-19T00:45:06.050Z,5.61
2019-03-19T00:46:06.032Z,5.63
2019-03-19T00:47:06.005Z,5.54
2019-03-19T00:48:05.987Z,5.54
2019-03-19T00:49:06.914Z,5.53
2019-03-19T00:50:05.942Z,5.53
2019-03-19T00:51:05.918Z,5.45
2019-03-19T00:52:05.889Z,5.51
2019-03-19T00:53:05.870Z,5.51
2019-03-19T00:54:05.846Z,5.51
2019-03-19T00:55:05.824Z,5.56
2019-03-19T00:56:05.799Z,5.51
2019-03-19T00:57:05.777Z,5.49
2019-03-19T00:58:05.752Z,5.53
2019-03-19T00:59:05.735Z,5.48
2019-03-19T01:00:05.710Z,5.46
2019-03-19T01:01:05.682Z,5.38
2019-03-19T01:02:05.662Z,5.43
2019-03-19T01:03:05.639Z,5.43
2019-03-19T01:04:05.617Z,5.42
2019-03-19T01:05:05.592Z,5.35
2019-03-19T01:06:05.568Z,5.39
2019-03-19T01:07:05.562Z,5.35
2019-03-19T01:08:05.526Z,5.39
2019-03-19T01:09:05.500Z,5.36
2019-03-19T01:10:05.479Z,5.28
2019-03-19T01:11:05.457Z,5.28
2019-03-19T01:12:05.435Z,5.27
2019-03-19T01:13:05.411Z,5.22
2019-03-19T01:14:05.386Z,5.21
2019-03-19T01:15:05.367Z,5.15
2019-03-19T01:16:05.335Z,5.15
2019-03-19T01:17:05.319Z,5.22
2019-03-19T01:18:05.295Z,5.25
2019-03-19T01:19:05.272Z,5.18
2019-03-19T01:20:05.259Z,5.22
2019-03-19T01:21:05.225Z,5.07
2019-03-19T01:22:05.202Z,5.09
2019-03-19T01:23:05.177Z,5.04
2019-03-19T01:24:05.157Z,5.09
2019-03-19T01:25:05.135Z,5.10
2019-03-19T01:26:05.115Z,5.12
2019-03-19T01:27:05.086Z,5.00
2019-03-19T01:28:05.069Z,4.97
2019-03-19T01:29:05.040Z,5.02
2019-03-19T01:30:05.015Z,4.99
2019-03-19T01:31:04.996Z,4.92
2019-03-19T01:32:04.971Z,4.96
2019-03-19T01:33:04.945Z,4.99
2019-03-19T01:34:04.923Z,4.91
2019-03-19T01:35:04.911Z,4.84
2019-03-19T01:36:04.895Z,4.85
2019-03-19T01:37:04.858Z,4.80
2019-03-19T01:38:04.837Z,4.91
2019-03-19T01:39:04.809Z,4.89
2019-03-19T01:40:04.794Z,4.84
2019-03-19T01:41:04.766Z,4.88
2019-03-19T01:42:04.744Z,4.86
2019-03-19T01:43:04.777Z,4.92
2019-03-19T01:44:04.695Z,4.84
2019-03-19T01:45:04.670Z,4.92
2019-03-19T01:46:04.647Z,4.89
2019-03-19T01:47:04.622Z,4.91
2019-03-19T01:48:04.600Z,4.85
2019-03-19T01:49:04.583Z,4.92
2019-03-19T01:50:04.556Z,4.99
2019-03-19T01:51:04.531Z,5.02
2019-03-19T01:52:04.511Z,5.07
2019-03-19T01:53:04.481Z,5.12
2019-03-19T01:54:04.461Z,5.06
2019-03-19T01:55:04.441Z,5.07
2019-03-19T01:56:05.414Z,5.03
2019-03-19T01:57:04.396Z,5.07
2019-03-19T01:58:04.373Z,5.04
2019-03-19T01:59:04.347Z,5.13
2019-03-19T02:00:04.324Z,5.09
2019-03-19T02:01:04.299Z,5.15
2019-03-19T02:02:04.279Z,5.17
2019-03-19T02:03:04.253Z,5.20
2019-03-19T02:04:04.231Z,5.18
2019-03-19T02:05:04.209Z,5.20
2019-03-19T02:06:04.189Z,5.18
2019-03-19T02:07:04.161Z,5.18
2019-03-19T02:08:04.140Z,5.20
2019-03-19T02:09:04.119Z,5.28
2019-03-19T02:10:04.095Z,5.20
2019-03-19T02:11:04.071Z,5.20
2019-03-19T02:12:04.045Z,5.21
2019-03-19T02:13:04.025Z,5.15
2019-03-19T02:14:03.999Z,5.18
2019-03-19T02:15:03.976Z,5.20
2019-03-19T02:16:03.955Z,5.27
2019-03-19T02:17:03.933Z,5.17
2019-03-19T02:18:03.909Z,5.25
2019-03-19T02:19:03.884Z,5.25
2019-03-19T02:20:03.863Z,5.28
2019-03-19T02:21:03.841Z,5.22
2019-03-19T02:22:03.813Z,5.30
2019-03-19T02:23:04.762Z,5.33
2019-03-19T02:24:03.765Z,5.31
2019-03-19T02:25:03.749Z,5.36
2019-03-19T02:26:03.724Z,5.33
2019-03-19T02:27:03.704Z,5.40
2019-03-19T02:28:03.682Z,5.31
2019-03-19T02:29:03.662Z,5.28
2019-03-19T02:30:03.638Z,5.31
2019-03-19T02:31:03.625Z,5.38
2019-03-19T02:32:03.588Z,5.30
2019-03-19T02:33:03.561Z,5.31
2019-03-19T02:34:03.547Z,5.35
2019-03-19T02:35:03.529Z,5.28
2019-03-19T02:36:03.495Z,5.33
2019-03-19T02:37:03.474Z,5.25
2019-03-19T02:38:03.463Z,5.22
2019-03-19T02:39:03.425Z,5.18
2019-03-19T02:40:03.404Z,5.17
2019-03-19T02:41:03.389Z,5.25
2019-03-19T02:42:03.362Z,5.18
2019-03-19T02:43:03.347Z,5.20
2019-03-19T02:44:03.316Z,5.22
2019-03-19T02:45:03.287Z,5.17
2019-03-19T02:46:03.268Z,5.21
2019-03-19T02:47:03.242Z,5.13
2019-03-19T02:48:03.227Z,5.07
2019-03-19T02:49:03.196Z,5.17
2019-03-19T02:50:03.172Z,5.07
2019-03-19T02:51:03.159Z,5.18
2019-03-19T02:52:03.128Z,5.13
2019-03-19T02:53:03.104Z,5.24
2019-03-19T02:54:03.078Z,5.15
2019-03-19T02:55:03.059Z,5.15
2019-03-19T02:56:03.030Z,5.17
2019-03-19T02:57:03.018Z,5.15
2019-03-19T02:58:02.994Z,5.17
2019-03-19T02:59:02.963Z,5.25
2019-03-19T03:00:02.946Z,5.25
2019-03-19T03:01:02.916Z,5.15
2019-03-19T03:02:02.895Z,5.33
2019-03-19T03:03:02.868Z,5.25
2019-03-19T03:04:02.847Z,5.12
2019-03-19T03:05:02.824Z,5.21
2019-03-19T03:06:02.810Z,5.22
2019-03-19T03:07:02.782Z,5.17
2019-03-19T03:08:02.759Z,5.21
2019-03-19T03:09:02.730Z,5.21
2019-03-19T03:10:02.716Z,5.17
2019-03-19T03:11:02.687Z,5.12
2019-03-19T03:12:02.665Z,5.17
2019-03-19T03:13:02.637Z,5.10
2019-03-19T03:14:02.618Z,5.18
2019-03-19T03:15:02.606Z,5.17
2019-03-19T03:16:02.573Z,5.18
2019-03-19T03:17:02.548Z,5.24
2019-03-19T03:18:02.532Z,5.15
2019-03-19T03:19:02.505Z,5.20
2019-03-19T03:20:02.481Z,5.20
2019-03-19T03:21:02.457Z,5.12
2019-03-19T03:22:02.432Z,5.09
2019-03-19T03:23:02.415Z,5.07
2019-03-19T03:24:02.399Z,5.07
2019-03-19T03:25:02.365Z,5.03
2019-03-19T03:26:02.342Z,5.07
2019-03-19T03:27:02.672Z,5.03
2019-03-19T03:28:02.297Z,5.10
2019-03-19T03:29:02.270Z,5.06
2019-03-19T03:30:02.413Z,5.06
2019-03-19T03:31:02.234Z,5.03
2019-03-19T03:32:02.204Z,5.09
2019-03-19T03:33:02.180Z,5.10
2019-03-19T03:34:02.155Z,5.03
2019-03-19T03:35:02.156Z,5.07
2019-03-19T03:36:02.111Z,5.00
2019-03-19T03:37:02.109Z,5.02
2019-03-19T03:38:02.099Z,5.02
2019-03-19T03:39:02.044Z,4.92
2019-03-19T03:40:02.023Z,4.97
2019-03-19T03:41:01.991Z,4.97
2019-03-19T03:42:01.972Z,5.06
2019-03-19T03:43:01.961Z,5.00
2019-03-19T03:44:01.924Z,4.99
2019-03-19T03:45:01.899Z,5.00
2019-03-19T03:46:01.877Z,5.03
2019-03-19T03:47:01.854Z,5.02
2019-03-19T03:48:01.846Z,5.00
2019-03-19T03:49:01.813Z,5.09
2019-03-19T03:50:01.795Z,4.97
2019-03-19T03:51:01.760Z,5.06
2019-03-19T03:52:01.752Z,5.03
2019-03-19T03:53:01.715Z,5.03
2019-03-19T03:54:01.695Z,5.04
2019-03-19T03:55:01.686Z,5.06
2019-03-19T03:56:01.651Z,5.09
2019-03-19T03:57:02.864Z,5.03
2019-03-19T03:58:01.603Z,5.04
2019-03-19T03:59:01.666Z,5.13
2019-03-19T04:00:01.567Z,5.09
2019-03-19T04:01:01.531Z,5.06
2019-03-19T04:02:01.507Z,5.06
2019-03-19T04:03:01.492Z,5.12
2019-03-19T04:04:01.468Z,5.20
2019-03-19T04:05:01.450Z,5.13
2019-03-19T04:06:01.417Z,5.20
2019-03-19T04:07:01.401Z,5.22
2019-03-19T04:08:01.373Z,5.25
2019-03-19T04:09:01.359Z,5.17
2019-03-19T04:10:01.348Z,5.22
2019-03-19T04:11:01.312Z,5.21
2019-03-19T04:12:01.278Z,5.24
2019-03-19T04:13:01.254Z,5.17
2019-03-19T04:14:01.231Z,5.20
2019-03-19T04:15:01.210Z,5.25
2019-03-19T04:16:01.191Z,5.13
2019-03-19T04:17:01.170Z,5.15
2019-03-19T04:18:01.148Z,5.15
2019-03-19T04:19:01.116Z,5.13
2019-03-19T04:20:01.091Z,5.18
2019-03-19T04:21:01.068Z,5.21
2019-03-19T04:22:01.047Z,5.15
2019-03-19T04:23:01.028Z,5.17
2019-03-19T04:24:01.004Z,5.13
2019-03-19T04:25:00.978Z,5.18
2019-03-19T04:26:00.960Z,5.22
2019-03-19T04:27:14.920Z,5.20
2019-03-19T04:28:00.923Z,5.22
2019-03-19T04:29:00.889Z,5.22
2019-03-19T04:30:00.872Z,5.25
2019-03-19T04:31:00.847Z,5.20
2019-03-19T04:32:00.818Z,5.22
2019-03-19T04:33:00.808Z,5.20
2019-03-19T04:34:00.769Z,5.15
2019-03-19T04:35:00.749Z,5.15
2019-03-19T04:36:00.721Z,5.10
2019-03-19T04:37:00.704Z,5.06
2019-03-19T04:38:00.680Z,5.07
2019-03-19T04:39:00.655Z,5.06
2019-03-19T04:40:00.634Z,5.10
2019-03-19T04:41:00.610Z,5.03
2019-03-19T04:42:00.591Z,5.07
2019-03-19T04:43:00.565Z,5.06
2019-03-19T04:44:00.542Z,5.06
2019-03-19T04:45:00.522Z,5.12
2019-03-19T04:46:00.495Z,5.04
2019-03-19T04:47:00.484Z,5.06
2019-03-19T04:48:00.445Z,5.04
2019-03-19T04:49:00.429Z,5.09
2019-03-19T04:50:00.401Z,5.09
2019-03-19T04:51:00.390Z,5.04
2019-03-19T04:52:00.354Z,5.13
2019-03-19T04:53:00.336Z,5.04
2019-03-19T04:54:00.312Z,5.13
2019-03-19T04:55:00.411Z,5.12
2019-03-19T04:56:00.264Z,5.09
2019-03-19T04:57:00.244Z,5.06
2019-03-19T04:58:00.220Z,5.04
2019-03-19T04:59:00.197Z,5.04
2019-03-19T05:00:00.388Z,5.10
2019-03-19T05:01:00.149Z,5.07
2019-03-19T05:02:00.132Z,5.07
2019-03-19T05:03:00.106Z,5.06
2019-03-19T05:04:00.085Z,5.07
2019-03-19T05:05:00.065Z,5.04
2019-03-19T05:06:00.039Z,5.13
2019-03-19T05:07:00.017Z,5.12
2019-03-19T05:07:59.990Z,5.20
2019-03-19T05:08:59.978Z,5.18
2019-03-19T05:09:59.946Z,5.17
2019-03-19T05:10:59.927Z,5.20
2019-03-19T05:11:59.894Z,5.13
2019-03-19T05:13:00.880Z,5.24
2019-03-19T05:13:59.849Z,5.24
2019-03-19T05:14:59.832Z,5.10
2019-03-19T05:15:59.806Z,5.18
2019-03-19T05:16:59.782Z,5.27
2019-03-19T05:17:59.757Z,5.27
2019-03-19T05:18:59.743Z,5.18
2019-03-19T05:19:59.716Z,5.18
2019-03-19T05:20:59.697Z,5.13
2019-03-19T05:21:59.671Z,5.13
2019-03-19T05:22:59.644Z,5.27
2019-03-19T05:23:59.626Z,5.17
2019-03-19T05:24:59.598Z,5.27
2019-03-19T05:25:59.584Z,5.24
2019-03-19T05:26:59.554Z,5.25
2019-03-19T05:27:59.526Z,5.21
2019-03-19T05:28:59.507Z,5.35
2019-03-19T05:29:59.486Z,5.30
2019-03-19T05:30:59.466Z,5.28
2019-03-19T05:31:59.444Z,5.31
2019-03-19T05:32:59.422Z,5.35
2019-03-19T05:33:59.395Z,5.30
2019-03-19T05:34:59.375Z,5.27
2019-03-19T05:35:59.354Z,5.36
2019-03-19T05:36:59.331Z,5.31
2019-03-19T05:37:59.303Z,5.27
2019-03-19T05:38:59.278Z,5.43
2019-03-19T05:39:59.255Z,5.42
2019-03-19T05:40:59.233Z,5.39
2019-03-19T05:41:59.210Z,5.42
2019-03-19T05:42:59.190Z,5.46
2019-03-19T05:43:59.166Z,5.53
2019-03-19T05:44:59.140Z,5.56
2019-03-19T05:45:59.118Z,5.53
2019-03-19T05:46:59.092Z,5.60
2019-03-19T05:47:59.080Z,5.57
2019-03-19T05:48:59.050Z,5.58
2019-03-19T05:49:59.023Z,5.61
2019-03-19T05:50:59.003Z,5.61
2019-03-19T05:51:58.983Z,5.63
2019-03-19T05:52:58.961Z,5.72
2019-03-19T05:53:58.936Z,5.63
2019-03-19T05:54:58.911Z,5.65
2019-03-19T05:55:58.889Z,5.58
2019-03-19T05:56:58.869Z,5.58
2019-03-19T05:57:58.844Z,5.65
2019-03-19T05:58:58.821Z,5.61
2019-03-19T05:59:58.803Z,5.63
2019-03-19T06:00:58.776Z,5.65
2019-03-19T06:01:58.755Z,5.72
2019-03-19T06:02:58.728Z,5.71
2019-03-19T06:03:58.710Z,5.68
2019-03-19T06:04:58.687Z,5.68
2019-03-19T06:05:58.659Z,5.67
2019-03-19T06:06:58.651Z,5.71
2019-03-19T06:07:58.623Z,5.71
2019-03-19T06:08:58.593Z,5.78
2019-03-19T06:09:58.570Z,5.82
2019-03-19T06:10:58.545Z,5.81
2019-03-19T06:11:58.520Z,5.85
2019-03-19T06:12:58.502Z,5.82
2019-03-19T06:13:58.478Z,5.83
2019-03-19T06:14:58.457Z,5.90
2019-03-19T06:15:58.430Z,5.97
2019-03-19T06:16:58.408Z,5.99
2019-03-19T06:17:58.389Z,6.08
2019-03-19T06:18:58.361Z,6.11
2019-03-19T06:19:58.339Z,6.18
2019-03-19T06:20:58.321Z,6.11
2019-03-19T06:21:58.293Z,6.15
2019-03-19T06:22:58.275Z,6.08
2019-03-19T06:23:58.259Z,6.06
2019-03-19T06:24:58.229Z,6.08
2019-03-19T06:25:58.220Z,6.12
2019-03-19T06:26:58.188Z,6.08
2019-03-19T06:28:00.616Z,6.06
2019-03-19T06:28:58.145Z,6.09
2019-03-19T06:29:58.118Z,6.08
2019-03-19T06:30:58.091Z,6.06
2019-03-19T06:31:58.074Z,6.14
2019-03-19T06:32:58.051Z,6.17
2019-03-19T06:33:58.027Z,6.22
2019-03-19T06:34:58.003Z,6.19
2019-03-19T06:35:57.983Z,6.18
2019-03-19T06:36:57.957Z,6.28
2019-03-19T06:37:57.936Z,6.33
2019-03-19T06:38:57.915Z,6.37
2019-03-19T06:39:57.891Z,6.41
2019-03-19T06:40:57.871Z,6.40
2019-03-19T06:41:57.851Z,6.54
2019-03-19T06:42:57.825Z,6.62
2019-03-19T06:43:57.801Z,6.73
2019-03-19T06:44:57.779Z,6.70
2019-03-19T06:45:57.761Z,6.81
2019-03-19T06:46:57.735Z,6.73
2019-03-19T06:47:57.712Z,6.85
2019-03-19T06:48:57.691Z,6.80
2019-03-19T06:49:57.667Z,6.85
2019-03-19T06:50:57.648Z,6.85
2019-03-19T06:51:57.619Z,6.89
2019-03-19T06:52:57.601Z,6.87
2019-03-19T06:53:57.575Z,6.71
2019-03-19T06:54:57.563Z,6.77
2019-03-19T06:55:57.530Z,6.74
2019-03-19T06:56:57.515Z,6.76
2019-03-19T06:57:57.493Z,6.85
2019-03-19T06:58:57.468Z,6.94
2019-03-19T06:59:57.448Z,7.05
2019-03-19T07:00:57.420Z,7.07
2019-03-19T07:01:57.408Z,7.12
2019-03-19T07:02:57.378Z,7.10
2019-03-19T07:03:57.354Z,7.21
2019-03-19T07:04:57.329Z,7.20
2019-03-19T07:05:57.311Z,7.34
2019-03-19T07:06:57.291Z,7.53
2019-03-19T07:07:57.271Z,7.52
2019-03-19T07:08:57.242Z,7.69
2019-03-19T07:09:57.225Z,7.74
2019-03-19T07:10:57.206Z,7.74
2019-03-19T07:11:57.180Z,7.72
2019-03-19T07:12:57.161Z,7.75
2019-03-19T07:13:57.136Z,7.86
2019-03-19T07:14:57.117Z,7.86
2019-03-19T07:15:57.092Z,7.87
2019-03-19T07:16:57.069Z,8.00
2019-03-19T07:17:57.049Z,8.01
2019-03-19T07:18:57.027Z,8.01
2019-03-19T07:19:57.011Z,7.90
2019-03-19T07:20:56.988Z,7.80
2019-03-19T07:21:56.964Z,8.04
2019-03-19T07:22:56.942Z,7.97
2019-03-19T07:23:56.920Z,8.07
2019-03-19T07:24:56.896Z,7.98
2019-03-19T07:25:56.879Z,8.07
2019-03-19T07:26:56.854Z,7.93
2019-03-19T07:27:56.839Z,8.01
2019-03-19T07:28:56.814Z,7.98
2019-03-19T07:29:56.790Z,8.07
2019-03-19T07:30:56.785Z,8.15
2019-03-19T07:31:56.745Z,8.16
2019-03-19T07:32:56.726Z,8.11
2019-03-19T07:33:56.702Z,7.92
2019-03-19T07:34:56.683Z,7.87
2019-03-19T07:35:56.664Z,7.57
2019-03-19T07:36:56.646Z,7.45
2019-03-19T07:37:56.619Z,7.49
2019-03-19T07:38:56.600Z,7.50
2019-03-19T07:39:56.579Z,7.50
2019-03-19T07:40:56.556Z,7.61
2019-03-19T07:41:56.537Z,7.71
2019-03-19T07:42:56.514Z,7.75
2019-03-19T07:43:56.494Z,7.71
2019-03-19T07:44:56.477Z,7.69
2019-03-19T07:45:56.461Z,7.77
2019-03-19T07:46:56.432Z,8.15
2019-03-19T07:47:56.415Z,8.23
2019-03-19T07:48:56.395Z,9.21
2019-03-19T07:49:56.368Z,10.22
2019-03-19T07:50:56.347Z,10.55
2019-03-19T07:51:56.327Z,10.22
2019-03-19T07:52:56.304Z,10.25
2019-03-19T07:53:56.281Z,10.14
2019-03-19T07:54:56.260Z,10.18
2019-03-19T07:55:56.242Z,10.53
2019-03-19T07:56:56.217Z,10.29
2019-03-19T07:57:56.198Z,10.01
2019-03-19T07:58:56.186Z,9.81
2019-03-19T07:59:56.162Z,9.61
2019-03-19T08:00:56.135Z,9.40
2019-03-19T08:01:56.118Z,9.48
2019-03-19T08:02:56.095Z,10.78
2019-03-19T08:03:56.077Z,11.58
2019-03-19T08:04:56.060Z,11.32
2019-03-19T08:05:56.043Z,11.09
2019-03-19T08:06:56.020Z,11.65
2019-03-19T08:07:55.994Z,12.59
2019-03-19T08:08:55.983Z,12.97
2019-03-19T08:09:55.961Z,12.82
2019-03-19T08:10:55.938Z,12.70
2019-03-19T08:11:55.917Z,12.41
2019-03-19T08:12:55.900Z,12.04
2019-03-19T08:13:55.893Z,11.95
2019-03-19T08:14:55.858Z,11.55
2019-03-19T08:15:55.842Z,11.35
2019-03-19T08:16:55.820Z,11.33
2019-03-19T08:17:55.821Z,11.67
2019-03-19T08:18:55.787Z,11.21
2019-03-19T08:19:57.258Z,11.02
2019-03-19T08:20:55.744Z,10.89
2019-03-19T08:21:55.729Z,10.42
2019-03-19T08:22:55.710Z,10.20
2019-03-19T08:23:55.691Z,10.04
2019-03-19T08:24:55.672Z,9.96
2019-03-19T08:25:55.675Z,9.87
2019-03-19T08:26:55.633Z,9.75
2019-03-19T08:27:55.617Z,9.66
2019-03-19T08:28:55.758Z,9.64
2019-03-19T08:29:55.579Z,9.76
2019-03-19T08:30:55.564Z,10.14
2019-03-19T08:31:55.541Z,10.09
2019-03-19T08:32:55.525Z,9.97
2019-03-19T08:33:55.510Z,9.96
2019-03-19T08:34:55.483Z,11.43
2019-03-19T08:35:55.463Z,12.72
2019-03-19T08:36:55.448Z,13.44
2019-03-19T08:37:55.430Z,13.42
2019-03-19T08:38:55.411Z,14.55
2019-03-19T08:39:56.734Z,13.66
2019-03-19T08:40:55.375Z,13.92
2019-03-19T08:41:55.357Z,13.71
2019-03-19T08:42:55.340Z,14.32
2019-03-19T08:43:55.320Z,15.41
2019-03-19T08:44:55.307Z,16.09
2019-03-19T08:45:55.287Z,15.47
2019-03-19T08:46:55.269Z,14.92
2019-03-19T08:47:55.254Z,14.37
2019-03-19T08:48:55.236Z,14.61
2019-03-19T08:49:55.220Z,15.27
2019-03-19T08:50:55.199Z,15.06
2019-03-19T08:52:42.725Z,14.72
2019-03-19T08:53:42.701Z,14.03
2019-03-19T08:54:42.688Z,13.46
2019-03-19T08:55:42.671Z,13.14
2019-03-19T08:56:42.653Z,13.42
2019-03-19T08:57:42.643Z,13.05
2019-03-19T08:58:42.632Z,12.75
2019-03-19T08:59:42.616Z,12.32
2019-03-19T09:00:42.588Z,11.95
2019-03-19T09:01:42.570Z,12.27
2019-03-19T09:02:42.553Z,12.19
2019-03-19T09:03:42.547Z,11.86
2019-03-19T09:04:42.526Z,12.29
2019-03-19T09:05:42.501Z,13.04
2019-03-19T09:06:42.489Z,12.74
2019-03-19T09:07:42.472Z,12.50
2019-03-19T09:08:42.451Z,13.10
2019-03-19T09:09:42.436Z,12.83
2019-03-19T09:10:42.423Z,12.71
2019-03-19T09:11:42.404Z,12.41
2019-03-19T09:12:42.400Z,12.05
2019-03-19T09:13:42.377Z,11.85
2019-03-19T09:15:44.915Z,11.83
2019-03-19T09:16:44.900Z,11.72
2019-03-19T09:17:47.501Z,11.62
2019-03-19T09:18:44.866Z,12.34
2019-03-19T09:19:44.855Z,13.81
2019-03-19T09:20:44.835Z,15.43
2019-03-19T09:21:44.818Z,16.64
2019-03-19T09:22:44.808Z,18.02
2019-03-19T09:23:44.787Z,18.90
2019-03-19T09:24:44.768Z,18.95
2019-03-19T09:25:44.774Z,19.71
2019-03-19T09:26:44.733Z,19.32
2019-03-19T09:27:44.745Z,19.98
2019-03-19T09:28:44.706Z,19.73
2019-03-19T09:29:44.690Z,18.92
2019-03-19T09:30:44.675Z,19.44
2019-03-19T09:31:44.656Z,19.71
2019-03-19T09:32:44.646Z,19.80
2019-03-19T09:33:44.635Z,19.71
2019-03-19T09:34:44.617Z,18.73
2019-03-19T09:35:44.604Z,18.50
2019-03-19T09:36:44.596Z,19.07
2019-03-19T09:37:53.640Z,18.99
2019-03-19T09:38:44.564Z,19.29
2019-03-19T09:39:44.552Z,18.10
2019-03-19T09:40:44.533Z,17.26
2019-03-19T09:41:44.521Z,16.38
2019-03-19T09:42:44.516Z,15.71
2019-03-19T09:43:44.492Z,15.14
2019-03-19T09:44:44.481Z,14.45
2019-03-19T09:45:44.483Z,14.07
2019-03-19T09:46:44.453Z,13.79
2019-03-19T09:47:44.446Z,13.52
2019-03-19T09:48:44.428Z,13.67
2019-03-19T09:49:44.418Z,14.75
2019-03-19T09:50:44.402Z,16.23
2019-03-19T09:51:44.394Z,17.34
2019-03-19T09:52:44.373Z,18.30
2019-03-19T09:53:44.369Z,18.87
2019-03-19T09:54:44.355Z,19.33
2019-03-19T09:55:44.336Z,18.30
2019-03-19T09:56:44.326Z,18.50
2019-03-19T09:57:44.318Z,18.32
2019-03-19T09:58:44.304Z,18.91
2019-03-19T09:59:44.669Z,18.92
2019-03-19T10:00:44.289Z,17.95
2019-03-19T10:01:44.270Z,17.07
2019-03-19T10:02:44.252Z,16.41
2019-03-19T10:03:44.247Z,15.82
2019-03-19T10:04:44.240Z,15.76
2019-03-19T10:05:44.222Z,16.02
2019-03-19T10:06:44.210Z,17.22
2019-03-19T10:07:44.201Z,18.12
2019-03-19T10:08:44.188Z,18.50
2019-03-19T10:09:44.180Z,17.95
2019-03-19T10:10:44.280Z,17.37
2019-03-19T10:11:44.156Z,16.45
2019-03-19T10:12:44.138Z,15.86
2019-03-19T10:13:44.130Z,15.29
2019-03-19T10:14:44.117Z,14.88
2019-03-19T10:15:44.119Z,14.94
2019-03-19T10:16:44.094Z,15.02
2019-03-19T10:17:44.090Z,14.89
2019-03-19T10:18:44.072Z,15.83
2019-03-19T10:19:44.062Z,16.67
2019-03-19T10:20:44.049Z,17.70
2019-03-19T10:21:44.041Z,18.57
2019-03-19T10:22:44.030Z,19.22
2019-03-19T10:23:44.017Z,19.74
2019-03-19T10:24:44.004Z,20.17
2019-03-19T10:25:44.002Z,20.10
2019-03-19T10:26:43.988Z,19.88
2019-03-19T10:27:43.985Z,19.56
2019-03-19T10:28:43.968Z,19.36
2019-03-19T10:29:43.958Z,19.28
2019-03-19T10:30:43.953Z,19.36
2019-03-19T10:31:43.937Z,19.59
2019-03-19T10:32:43.934Z,19.26
2019-03-19T10:33:43.922Z,18.26
2019-03-19T10:34:43.913Z,17.66
2019-03-19T10:35:43.904Z,17.28
2019-03-19T10:36:43.896Z,16.86
2019-03-19T10:37:43.923Z,16.41
2019-03-19T10:38:43.879Z,15.92
2019-03-19T10:39:43.865Z,15.74
2019-03-19T10:40:43.855Z,15.83
2019-03-19T10:41:43.863Z,15.54
2019-03-19T10:42:43.844Z,15.46
2019-03-19T10:43:43.837Z,15.28
2019-03-19T10:44:43.819Z,15.20
2019-03-19T10:45:43.815Z,15.10
2019-03-19T10:46:43.805Z,14.92
2019-03-19T10:47:43.794Z,14.62
2019-03-19T10:48:43.779Z,14.46
2019-03-19T10:49:43.769Z,14.22
2019-03-19T10:50:43.763Z,13.78
2019-03-19T10:51:43.760Z,13.55
2019-03-19T10:52:43.744Z,13.29
2019-03-19T10:53:43.727Z,12.85
2019-03-19T10:54:43.723Z,12.71
2019-03-19T10:55:43.706Z,12.53
2019-03-19T10:56:43.699Z,12.39
2019-03-19T10:57:43.687Z,12.19
2019-03-19T10:58:43.673Z,12.05
2019-03-19T10:59:49.173Z,12.07
2019-03-19T11:00:43.650Z,12.07
2019-03-19T11:01:43.638Z,12.72
2019-03-19T11:02:43.622Z,13.15
2019-03-19T11:03:43.615Z,13.73
2019-03-19T11:04:43.598Z,14.35
2019-03-19T11:05:43.587Z,14.96
2019-03-19T11:06:43.583Z,15.46
2019-03-19T11:07:43.569Z,15.53
2019-03-19T11:08:43.553Z,15.50
2019-03-19T11:09:43.537Z,15.72
2019-03-19T11:10:43.535Z,15.92
2019-03-19T11:11:43.522Z,16.27
2019-03-19T11:12:43.513Z,16.50
2019-03-19T11:13:43.499Z,16.78
2019-03-19T11:14:43.491Z,17.00
2019-03-19T11:15:43.480Z,17.18
2019-03-19T11:16:43.474Z,17.37
2019-03-19T11:17:43.469Z,17.16
2019-03-19T11:18:43.451Z,16.85
2019-03-19T11:19:43.445Z,16.45
2019-03-19T11:20:45.440Z,16.68
2019-03-19T11:21:43.427Z,17.00
2019-03-19T11:22:43.419Z,17.25
2019-03-19T11:23:43.408Z,17.52
2019-03-19T11:24:43.397Z,17.68
2019-03-19T11:25:53.955Z,17.89
2019-03-19T11:26:43.389Z,18.02
2019-03-19T11:27:43.374Z,18.15
2019-03-19T11:28:43.369Z,18.20
2019-03-19T11:29:43.362Z,18.12
2019-03-19T11:30:43.351Z,18.18
2019-03-19T11:31:43.342Z,18.27
2019-03-19T11:32:43.337Z,17.72
2019-03-19T11:33:43.327Z,17.52
2019-03-19T11:34:43.323Z,17.44
2019-03-19T11:35:45.597Z,17.23
2019-03-19T11:36:43.306Z,17.34
2019-03-19T11:37:43.301Z,16.97
2019-03-19T11:38:43.289Z,16.88
2019-03-19T11:39:43.285Z,16.67
2019-03-19T11:40:43.280Z,16.38
2019-03-19T11:41:43.268Z,16.09
2019-03-19T11:42:43.264Z,15.84
2019-03-19T11:43:43.257Z,15.67
2019-03-19T11:44:43.248Z,15.62
2019-03-19T11:45:43.241Z,15.56
2019-03-19T11:46:43.235Z,15.31
2019-03-19T11:47:43.232Z,15.09
2019-03-19T11:48:43.221Z,14.94
2019-03-19T11:49:43.218Z,14.84
2019-03-19T11:50:43.202Z,14.68
2019-03-19T11:51:43.199Z,14.39
2019-03-19T11:52:43.186Z,14.15
2019-03-19T11:53:43.180Z,13.92
2019-03-19T11:54:43.168Z,13.85
2019-03-19T11:55:43.162Z,13.87
2019-03-19T11:56:43.147Z,14.04
2019-03-19T11:57:43.139Z,14.54
2019-03-19T11:58:43.140Z,14.80
2019-03-19T11:59:43.123Z,15.28
2019-03-19T12:00:43.114Z,15.56
2019-03-19T12:01:43.106Z,15.87
2019-03-19T12:02:43.097Z,15.84
2019-03-19T12:03:43.088Z,15.69
2019-03-19T12:04:43.118Z,15.90
2019-03-19T12:05:43.070Z,15.74
2019-03-19T12:06:43.066Z,15.97
2019-03-19T12:07:43.052Z,16.09
2019-03-19T12:08:43.037Z,16.05
2019-03-19T12:09:43.033Z,16.11
2019-03-19T12:10:43.018Z,15.84
2019-03-19T12:11:43.020Z,15.41
2019-03-19T12:12:43.002Z,15.14
2019-03-19T12:13:42.998Z,14.57
2019-03-19T12:14:42.984Z,14.12
2019-03-19T12:15:42.978Z,13.87
2019-03-19T12:16:42.963Z,13.59
2019-03-19T12:17:42.954Z,13.41
2019-03-19T12:18:42.948Z,13.10
2019-03-19T12:19:42.938Z,12.82
2019-03-19T12:20:42.924Z,12.68
2019-03-19T12:21:42.917Z,12.74
2019-03-19T12:22:42.905Z,12.56
2019-03-19T12:23:42.894Z,12.28
2019-03-19T12:24:42.882Z,12.04
2019-03-19T12:25:42.878Z,12.07
2019-03-19T12:26:42.864Z,12.12
2019-03-19T12:27:42.856Z,12.05
2019-03-19T12:28:42.838Z,12.29
2019-03-19T12:29:42.827Z,12.70
2019-03-19T12:30:42.816Z,12.72
2019-03-19T12:31:42.802Z,12.71
2019-03-19T12:32:42.786Z,12.70
2019-03-19T12:33:42.778Z,12.65
2019-03-19T12:34:42.772Z,12.59
2019-03-19T12:35:42.756Z,12.49
2019-03-19T12:36:42.787Z,12.72
2019-03-19T12:37:42.724Z,12.79
2019-03-19T12:38:42.717Z,12.89
2019-03-19T12:39:42.706Z,12.82
2019-03-19T12:40:42.688Z,12.93
2019-03-19T12:41:42.681Z,13.22
2019-03-19T12:42:42.664Z,13.57
2019-03-19T12:43:42.651Z,13.82
2019-03-19T12:44:42.640Z,14.17
2019-03-19T12:45:42.623Z,14.47
2019-03-19T12:46:42.609Z,14.60
2019-03-19T12:47:42.598Z,14.92
2019-03-19T12:48:42.584Z,14.86
2019-03-19T12:49:42.573Z,14.83
2019-03-19T12:50:42.563Z,14.81
2019-03-19T12:51:42.553Z,14.64
2019-03-19T12:52:42.528Z,14.40
2019-03-19T12:53:42.518Z,14.33
2019-03-19T12:54:42.510Z,14.03
2019-03-19T12:55:42.494Z,13.85
2019-03-19T12:56:42.478Z,13.79
2019-03-19T12:57:42.467Z,13.55
2019-03-19T12:58:42.452Z,13.39
2019-03-19T12:59:42.742Z,13.20
2019-03-19T13:00:42.425Z,13.15
2019-03-19T13:01:42.421Z,13.07
2019-03-19T13:02:42.398Z,12.86
2019-03-19T13:03:42.383Z,12.78
2019-03-19T13:04:42.377Z,12.70
2019-03-19T13:05:42.361Z,12.71
2019-03-19T13:06:42.353Z,12.60
2019-03-19T13:07:42.330Z,12.57
2019-03-19T13:08:42.318Z,12.45
2019-03-19T13:09:42.301Z,12.38